Flight Track Log - Related Links

Times and Time Zones

All times are in EDT time to prevent confusion due to time zone crossing. See the N566UA flight status page for this flight to view local times or setup timezone preferences in your user account.

Time Position Orientation Groundspeed Altitude Reporting Facility
EDT Latitude Longitude Course Direction KTS MPH feet Rate Location/Type
Sat 07:21:05 PM 41.9333 -87.9167 228° Southwest 185 213 2,100  Level Chicago TRACON
Sat 07:21:59 PM 41.9000 -87.9667 228° Southwest 228 262 4,300 2,620 Climbing Chicago TRACON
Sat 07:23:27 PM 41.8303 -88.0583 224° Southwest 250 288 8,300 2,899 Climbing Chicago Center
Sat 07:24:28 PM 41.8133 -88.1525 256° West 265 305 11,500 2,439 Climbing Chicago Center
Sat 07:25:30 PM 41.8072 -88.2525 265° West 273 314 13,300 2,049 Climbing Chicago Center
Sat 07:26:31 PM 41.8036 -88.3733 268° West 321 369 15,700 2,213 Climbing Chicago Center
Sat 07:27:32 PM 41.8061 -88.4975 272° West 334 384 17,800 2,390 Climbing Chicago Center
Sat 07:28:34 PM 41.8103 -88.6489 272° West 342 394 20,600 2,390 Climbing Chicago Center
Sat 07:29:35 PM 41.8131 -88.7800 272° West 350 403 22,700 2,000 Climbing Chicago Center
Sat 07:30:37 PM 41.8047 -88.9128 265° West 358 412 24,700 1,854 Climbing Chicago Center
Sat 07:31:38 PM 41.7942 -89.0444 264° West 361 415 26,500 1,561 Climbing Chicago Center
Sat 07:32:40 PM 41.7806 -89.1819 262° West 372 428 27,900 1,220 Climbing Chicago Center
Sat 07:33:41 PM 41.7644 -89.3244 261° West 387 445 29,000 1,268 Climbing Chicago Center
Sat 07:34:43 PM 41.7494 -89.4681 262° West 391 450 30,500 1,561 Climbing Chicago Center
Sat 07:35:44 PM 41.7319 -89.6356 262° West 392 451 32,200 1,512 Climbing Chicago Center
Sat 07:36:46 PM 41.7153 -89.7769 261° West 389 448 33,600 1,122 Climbing Chicago Center
Sat 07:37:47 PM 41.6992 -89.9208 262° West 391 450 34,500 787 Climbing Chicago Center
Sat 07:38:48 PM 41.6825 -90.0681 261° West 399 459 35,200 732 Climbing Chicago Center
Sat 07:39:50 PM 41.6647 -90.2153 261° West 403 464 36,000 390 Climbing Chicago Center
Sat 07:40:51 PM 41.6475 -90.3661 261° West 412 474 36,000  Level Chicago Center
Sat 07:41:53 PM 41.6300 -90.5131 261° West 406 467 36,000  Level Chicago Center
Sat 07:42:54 PM 41.6111 -90.6678 261° West 408 470 36,000  Level Chicago Center
Sat 07:43:56 PM 41.5886 -90.8511 261° West 417 480 36,000  Level Chicago Center
Sat 07:44:57 PM 41.5700 -91.0047 261° West 421 484 36,000  Level Chicago Center
Sat 07:45:59 PM 41.5508 -91.1583 261° West 421 484 36,000  Level Chicago Center
Sat 07:47:00 PM 41.5306 -91.3108 260° West 421 484 36,000  Level Chicago Center
Sat 07:48:02 PM 41.5122 -91.4625 261° West 419 482 36,000  Level Chicago Center
Sat 07:49:03 PM 41.4928 -91.6131 260° West 415 478 36,000  Level Chicago Center
Sat 07:50:04 PM 41.4736 -91.7617 260° West 409 471 36,000  Level Chicago Center
Sat 07:51:06 PM 41.4542 -91.9097 260° West 407 468 36,000  Level Chicago Center
Sat 07:52:07 PM 41.4314 -92.0861 260° West 405 466 36,000  Level Chicago Center
Sat 07:53:09 PM 41.4111 -92.2347 260° West 407 468 36,000  Level Chicago Center
Sat 07:54:10 PM 41.3917 -92.3819 260° West 408 470 36,000  Level Chicago Center
Sat 07:55:11 PM 41.3717 -92.5217 259° West 411 473 36,000  Level Chicago Center
Sat 07:55:55 PM 41.3567 -92.6406 260° West 410 472 36,000  Level Minneapolis Center
Sat 07:56:56 PM 41.3353 -92.7869 259° West 408 470 36,000  Level Minneapolis Center
Sat 07:57:58 PM 41.3142 -92.9331 259° West 408 470 36,000  Level Minneapolis Center
Sat 07:58:59 PM 41.2897 -93.1089 260° West 408 470 36,000  Level Minneapolis Center
Sat 08:00:00 PM 41.2694 -93.2558 260° West 409 471 36,000  Level Minneapolis Center
Sat 08:01:01 PM 41.2469 -93.4022 258° West 409 471 36,000  Level Minneapolis Center
Sat 08:02:02 PM 41.2250 -93.5472 259° West 406 467 36,000  Level Minneapolis Center
Sat 08:03:04 PM 41.2042 -93.6925 259° West 404 465 36,000  Level Minneapolis Center
Sat 08:04:05 PM 41.1828 -93.8403 259° West 410 472 36,000  Level Minneapolis Center
Sat 08:05:06 PM 41.1608 -93.9872 259° West 411 473 36,000  Level Minneapolis Center
Sat 08:06:07 PM 41.1347 -94.1631 259° West 409 471 36,000  Level Minneapolis Center
Sat 08:07:08 PM 41.1125 -94.3094 259° West 408 470 36,000  Level Minneapolis Center
Sat 08:08:10 PM 41.0889 -94.4575 258° West 412 474 36,000  Level Minneapolis Center
Sat 08:09:11 PM 41.0678 -94.5997 259° West 411 473 36,000  Level Minneapolis Center
Sat 08:10:12 PM 41.0447 -94.7486 258° West 411 473 36,000  Level Minneapolis Center
Sat 08:11:13 PM 41.0206 -94.8986 258° West 413 475 36,000  Level Minneapolis Center
Sat 08:12:14 PM 40.9958 -95.0469 258° West 411 473 36,000  Level Minneapolis Center
Sat 08:13:16 PM 40.9714 -95.1967 258° West 414 476 36,000  Level Minneapolis Center
Sat 08:14:17 PM 40.9458 -95.3519 258° West 423 487 36,000  Level Minneapolis Center
Sat 08:15:18 PM 40.9164 -95.5333 258° West 422 486 36,000  Level Minneapolis Center
Sat 08:16:19 PM 40.8914 -95.6836 258° West 418 481 36,000  Level Minneapolis Center
Sat 08:17:20 PM 40.8667 -95.8353 258° West 419 482 36,000  Level Minneapolis Center
Sat 08:18:22 PM 40.8414 -95.9856 258° West 417 480 36,000  Level Minneapolis Center
Sat 08:19:23 PM 40.8147 -96.1361 257° West 419 482 36,000  Level Minneapolis Center
Sat 08:20:24 PM 40.7889 -96.2867 257° West 418 481 36,000  Level Minneapolis Center
Sat 08:21:25 PM 40.7625 -96.4378 257° West 420 483 36,000  Level Minneapolis Center
Sat 08:22:27 PM 40.7381 -96.5886 258° West 421 484 36,000  Level Minneapolis Center
Sat 08:23:28 PM 40.7108 -96.7378 257° West 419 482 36,000  Level Minneapolis Center
Sat 08:24:29 PM 40.6844 -96.8881 257° West 419 482 36,000  Level Minneapolis Center
Sat 08:25:31 PM 40.6578 -97.0389 257° West 421 484 36,000  Level Minneapolis Center
Sat 08:26:32 PM 40.6314 -97.1883 257° West 420 483 36,000  Level Minneapolis Center
Sat 08:27:33 PM 40.5994 -97.3592 256° West 420 483 36,000  Level Minneapolis Center
Sat 08:28:35 PM 40.5717 -97.5078 256° West 420 483 36,000  Level Minneapolis Center
Sat 08:29:36 PM 40.5439 -97.6583 256° West 421 484 36,000  Level Minneapolis Center
Sat 08:30:37 PM 40.5153 -97.8081 256° West 421 484 36,000  Level Minneapolis Center
Sat 08:31:39 PM 40.4875 -97.9572 256° West 420 483 36,000  Level Minneapolis Center
Sat 08:32:40 PM 40.4586 -98.1069 256° West 420 483 36,000  Level Minneapolis Center
Sat 08:33:42 PM 40.4303 -98.2569 256° West 422 486 36,000  Level Minneapolis Center
Sat 08:34:43 PM 40.4019 -98.4064 256° West 421 484 36,000  Level Minneapolis Center
Sat 08:35:44 PM 40.3731 -98.5578 256° West 424 488 36,000  Level Minneapolis Center
Sat 08:36:46 PM 40.3378 -98.7383 256° West 424 488 36,000  Level Minneapolis Center
Sat 08:37:47 PM 40.3072 -98.8878 255° West 423 487 36,000  Level Minneapolis Center
Sat 08:38:29 PM 40.2897 -98.9789 256° West 423 487 36,000  Level Denver Center
Sat 08:39:30 PM 40.2600 -99.1281 255° West 422 486 36,000  Level Denver Center
Sat 08:40:31 PM 40.2289 -99.2797 255° West 428 493 36,000  Level Denver Center
Sat 08:41:33 PM 40.1994 -99.4289 256° West 424 488 36,000  Level Denver Center
Sat 08:42:34 PM 40.1689 -99.5794 255° West 426 490 36,000  Level Denver Center
Sat 08:43:35 PM 40.1381 -99.7294 255° West 427 491 36,000  Level Denver Center
Sat 08:44:37 PM 40.1069 -99.8781 255° West 425 489 36,000  Level Denver Center
Sat 08:45:38 PM 40.0728 -100.0422 255° West 427 491 36,000  Level Denver Center
Sat 08:46:39 PM 40.0378 -100.2097 255° West 430 495 36,000  Level Denver Center
Sat 08:47:41 PM 40.0067 -100.3544 254° West 429 494 36,000  Level Denver Center
Sat 08:48:42 PM 39.9753 -100.4983 254° West 432 497 36,000  Level Denver Center
Sat 08:49:43 PM 39.9392 -100.6667 254° West 431 496 36,000  Level Denver Center
Sat 08:50:44 PM 39.9086 -100.8103 255° West 429 494 36,000  Level Denver Center
Sat 08:51:46 PM 39.8719 -100.9775 254° West 429 494 36,000  Level Denver Center
Sat 08:52:47 PM 39.8400 -101.1219 254° West 431 496 36,000  Level Denver Center
Sat 08:53:48 PM 39.8081 -101.2653 254° West 431 496 36,000  Level Denver Center
Sat 08:54:50 PM 39.7719 -101.4353 255° West 435 501 36,000  Level Denver Center
Sat 08:55:51 PM 39.7392 -101.5769 253° West 429 494 36,000  Level Denver Center
Sat 08:56:52 PM 39.7075 -101.7208 254° West 432 497 36,000  Level Denver Center
Sat 08:57:54 PM 39.6689 -101.8881 253° West 431 496 36,000  Level Denver Center
Sat 08:58:55 PM 39.6364 -102.0328 254° West 434 499 36,000  Level Denver Center
Sat 08:59:58 PM 39.5983 -102.2006 254° West 434 499 36,000  Level Denver Center
Sat 09:00:59 PM 39.5658 -102.3453 254° West 437 503 36,000  Level Denver Center
Sat 09:02:01 PM 39.5281 -102.5042 253° West 437 503 36,000  Level Denver Center
Sat 09:03:02 PM 39.4925 -102.6547 253° West 435 501 36,000  Level Denver Center
Sat 09:04:03 PM 39.4581 -102.8053 254° West 434 499 36,000  Level Denver Center
Sat 09:06:06 PM 39.3867 -103.1039 253° West 430 495 36,000  Level Denver Center
Sat 09:07:07 PM 39.3500 -103.2531 252° West 431 496 36,000 148 Level Denver Center
Sat 09:08:08 PM 39.3131 -103.4039 252° West 436 502 36,300 390 Climbing Denver Center
Sat 09:09:10 PM 39.2764 -103.5517 252° West 429 494 36,800 488 Climbing Denver Center
Sat 09:10:11 PM 39.2394 -103.7003 252° West 430 495 37,300 492 Climbing Denver Center
Sat 09:11:12 PM 39.2036 -103.8478 253° West 428 493 37,800 341 Climbing Denver Center
Sat 09:12:14 PM 39.1678 -103.9914 252° West 419 482 38,000 98 Climbing Denver Center
Sat 09:13:15 PM 39.1322 -104.1358 252° West 419 482 38,000  Level Denver Center
Sat 09:14:16 PM 39.0950 -104.2839 252° West 426 490 38,000  Level Denver Center
Sat 09:15:18 PM 39.0517 -104.4539 252° West 423 487 38,000  Level Denver Center
Sat 09:16:19 PM 39.0144 -104.5994 252° West 424 488 38,000  Level Denver Center
Sat 09:17:20 PM 38.9758 -104.7458 251° West 426 490 38,000  Level Denver Center
Sat 09:18:21 PM 38.9386 -104.8917 252° West 425 489 38,000  Level Denver Center
Sat 09:19:23 PM 38.8997 -105.0414 252° West 433 498 38,000  Level Denver Center
Sat 09:20:24 PM 38.8614 -105.1903 252° West 435 501 38,000  Level Denver Center
Sat 09:21:26 PM 38.8231 -105.3347 251° West 427 491 38,000  Level Denver Center
Sat 09:22:27 PM 38.7850 -105.4808 252° West 427 491 38,000  Level Denver Center
Sat 09:23:28 PM 38.7458 -105.6272 251° West 429 494 38,000  Level Denver Center
Sat 09:24:30 PM 38.7078 -105.7739 252° West 430 495 38,000  Level Denver Center
Sat 09:25:31 PM 38.6686 -105.9197 251° West 429 494 38,000  Level Denver Center
Sat 09:26:32 PM 38.6294 -106.0644 251° West 427 491 38,000  Level Denver Center
Sat 09:27:34 PM 38.5931 -106.2017 251° West 428 493 38,000  Level Denver Center
Sat 09:28:47 PM 38.5525 -106.3453 250° West 428 493 38,000  Level Denver Center
Sat 09:29:48 PM 38.5053 -106.5167 251° West 426 490 38,000  Level Denver Center
Sat 09:30:50 PM 38.4658 -106.6569 250° West 419 482 38,000  Level Denver Center
Sat 09:31:51 PM 38.4272 -106.7986 251° West 420 483 38,000  Level Denver Center
Sat 09:32:52 PM 38.3806 -106.9636 250° West 414 476 38,000  Level Denver Center
Sat 09:33:54 PM 38.3417 -107.1042 251° West 418 481 38,000  Level Denver Center
Sat 09:34:55 PM 38.3064 -107.2306 250° West 413 475 38,000  Level Denver Center
Sat 09:35:56 PM 38.2625 -107.3856 250° West 416 479 38,000  Level Denver Center
Sat 09:36:58 PM 38.2242 -107.5175 250° West 416 479 38,000  Level Denver Center
Sat 09:37:59 PM 38.1783 -107.6750 250° West 422 486 38,000  Level Denver Center
Sat 09:39:01 PM 38.1392 -107.8131 250° West 430 495 38,000  Level Denver Center
Sat 09:40:02 PM 38.0997 -107.9492 250° West 429 494 38,000  Level Denver Center
Sat 09:41:04 PM 38.0575 -108.0947 250° West 433 498 38,000  Level Denver Center
Sat 09:42:05 PM 38.0100 -108.2553 249° West 434 499 38,000  Level Denver Center
Sat 09:43:06 PM 37.9694 -108.3931 250° West 437 503 38,000  Level Denver Center
Sat 09:44:08 PM 37.9225 -108.5519 250° West 434 499 38,000  Level Denver Center
Sat 09:45:21 PM 37.8819 -108.6883 249° West 433 498 38,000  Level Denver Center
Sat 09:46:23 PM 37.8264 -108.8744 249° West 440 506 38,000  Level Denver Center
Sat 09:47:24 PM 37.7867 -109.0119 250° West 438 504 38,000  Level Denver Center
Sat 09:48:25 PM 37.7494 -109.1750 254° West 434 499 38,000  Level Denver Center
Sat 09:49:27 PM 37.7156 -109.3144 253° West 435 501 38,000  Level Denver Center
Sat 09:50:28 PM 37.6808 -109.4514 252° West 431 496 38,000 -390 Level Denver Center
Sat 09:51:30 PM 37.6406 -109.6092 252° West 423 487 37,200 -1,415 Descending Denver Center
Sat 09:52:31 PM 37.6075 -109.7400 252° West 412 474 35,100 -1,574 Descending Denver Center
Sat 09:53:32 PM 37.5686 -109.8944 252° West 415 478 34,000 -976 Descending Denver Center
Sat 09:54:34 PM 37.5333 -110.0269 251° West 418 481 33,100 -927 Descending Denver Center
Sat 09:55:35 PM 37.4983 -110.1625 252° West 424 488 32,100 -541 Descending Denver Center
Sat 09:56:36 PM 37.4564 -110.3281 252° West 429 494 32,000 -49 Descending Denver Center
Sat 09:57:37 PM 37.4192 -110.4703 252° West 427 491 32,000  Level Denver Center
Sat 09:58:39 PM 37.3825 -110.6106 252° West 424 488 32,000  Level Denver Center
Sat 09:59:40 PM 37.3442 -110.7517 251° West 426 490 32,000  Level Denver Center
Sat 10:00:41 PM 37.3072 -110.8908 252° West 423 487 32,000  Level Denver Center
Sat 10:01:43 PM 37.2736 -111.0300 253° West 418 481 32,000  Level Denver Center
Sat 10:02:44 PM 37.2372 -111.1700 252° West 420 483 32,000  Level Denver Center
Sat 10:03:45 PM 37.1983 -111.3100 251° West 425 489 32,000  Level Denver Center
Sat 10:04:46 PM 37.1578 -111.4528 250° West 429 494 32,000  Level Denver Center
Sat 10:05:47 PM 37.1222 -111.5908 252° West 422 486 32,000  Level Denver Center
Sat 10:06:49 PM 37.0761 -111.7583 251° West 422 486 32,000  Level Denver Center
Sat 10:07:50 PM 37.0389 -111.9003 252° West 426 490 32,000  Level Denver Center
Sat 10:08:51 PM 37.0050 -112.0425 253° West 427 491 32,000  Level Denver Center
Sat 10:09:54 PM 36.9700 -112.1850 253° West 424 488 32,000  Level Los Angeles Center
Sat 10:10:56 PM 36.9358 -112.3250 253° West 421 484 32,000  Level Los Angeles Center
Sat 10:11:57 PM 36.9019 -112.4664 253° West 423 487 32,000  Level Los Angeles Center
Sat 10:12:58 PM 36.8672 -112.6064 253° West 422 486 32,000  Level Los Angeles Center
Sat 10:13:59 PM 36.8336 -112.7489 254° West 425 489 32,000  Level Los Angeles Center
Sat 10:15:01 PM 36.7978 -112.8903 252° West 426 490 32,000  Level Los Angeles Center
Sat 10:16:02 PM 36.7622 -113.0325 253° West 428 493 32,000  Level Los Angeles Center
Sat 10:17:03 PM 36.7206 -113.2053 253° West 432 497 32,000  Level Los Angeles Center
Sat 10:18:05 PM 36.6842 -113.3481 252° West 433 498 32,000 -780 Level Los Angeles Center
Sat 10:19:06 PM 36.6483 -113.4914 253° West 433 498 30,400 -2,410 Descending Los Angeles Center
Sat 10:20:07 PM 36.6117 -113.6339 252° West 433 498 27,100 -2,927 Descending Los Angeles Center
Sat 10:21:09 PM 36.5758 -113.7733 252° West 427 491 24,400 -2,683 Descending Los Angeles Center
Sat 10:22:10 PM 36.5417 -113.9092 253° West 417 480 21,600 -2,803 Descending Los Angeles Center
Sat 10:23:11 PM 36.5064 -114.0417 252° West 406 467 18,700 -3,000 Descending Los Angeles Center
Sat 10:23:40 PM 36.4847 -114.1219 251° West 395 455 17,100 -2,613 Descending Los Angeles Center
Sat 10:24:13 PM 36.4736 -114.1711 254° West 397 457 16,000 -2,426 Descending Los Angeles Center
Sat 10:25:14 PM 36.4411 -114.2981 252° West 389 448 13,300 -1,820 Descending Los Angeles Center
Sat 10:26:15 PM 36.4083 -114.4181 251° West 374 430 12,300 -639 Descending Los Angeles Center
Sat 10:27:16 PM 36.3497 -114.4908 225° Southwest 324 373 12,000 -537 Descending Los Angeles Center
Sat 10:28:18 PM 36.2569 -114.5072 188° South 280 322 11,200 -1,008 Descending Los Angeles Center
Sat 10:29:21 PM 36.1806 -114.5125 183° South 264 304 9,900 -1,065 Descending Los Angeles Center
Sat 10:30:22 PM 36.1364 -114.5675 225° Southwest 242 278 9,000 -934 Descending Los Angeles Center
Sat 10:31:23 PM 36.1089 -114.6381 244° Southwest 228 262 8,000 -517 Descending Los Angeles Center
Sat 10:32:18 PM 36.0842 -114.7022 245° Southwest 225 259 8,000  Level Los Angeles Center
Sat 10:32:35 PM 36.0786 -114.7167 245° Southwest 222 255 8,000 -98 Level Los Angeles Center
Sat 10:33:19 PM 36.0742 -114.7747 265° West 215 247 7,900 -393 Descending Los Angeles Center
Sat 10:33:36 PM 36.0717 -114.7914 259° West 222 255 7,600 -1,309 Descending Los Angeles Center
Sat 10:34:14 PM 36.0733 -114.8392 272° West 203 234 6,700 -1,279 Descending Los Angeles Center
Sat 10:34:37 PM 36.0728 -114.8600 268° West 212 244 6,300 -1,180 Descending Los Angeles Center
Sat 10:35:15 PM 36.0739 -114.9108 272° West 207 238 5,500 -1,135 Descending Los Angeles Center
Sat 10:35:51 PM 36.0739 -114.9461 270° West 207 238 4,900 -1,000 Descending Los Angeles Center

Login

Don't have an account? Register now (free) for customized features, flight alerts, and more!